sensor_id;sensor_type;location;lat;lon;timestamp;P1;durP1;ratioP1;P2;durP2;ratioP2
15198;SDS011;7700;48.654;9.070;2023-06-22T00:01:51;9.88;;;8.88;;
15198;SDS011;7700;48.654;9.070;2023-06-22T00:04:17;9.98;;;9.07;;
15198;SDS011;7700;48.654;9.070;2023-06-22T00:06:43;10.55;;;9.25;;
15198;SDS011;7700;48.654;9.070;2023-06-22T00:09:09;10.77;;;9.80;;
15198;SDS011;7700;48.654;9.070;2023-06-22T00:11:38;9.48;;;8.70;;
15198;SDS011;7700;48.654;9.070;2023-06-22T00:14:04;9.80;;;8.90;;
15198;SDS011;7700;48.654;9.070;2023-06-22T00:16:33;10.70;;;9.70;;
15198;SDS011;7700;48.654;9.070;2023-06-22T00:19:00;9.95;;;9.15;;
15198;SDS011;7700;48.654;9.070;2023-06-22T00:21:27;11.30;;;10.20;;
15198;SDS011;7700;48.654;9.070;2023-06-22T00:23:53;10.38;;;9.38;;
15198;SDS011;7700;48.654;9.070;2023-06-22T00:26:19;10.80;;;9.40;;
15198;SDS011;7700;48.654;9.070;2023-06-22T00:28:46;9.98;;;9.10;;
15198;SDS011;7700;48.654;9.070;2023-06-22T00:31:12;12.52;;;11.43;;
15198;SDS011;7700;48.654;9.070;2023-06-22T00:33:38;11.00;;;9.60;;
15198;SDS011;7700;48.654;9.070;2023-06-22T00:36:04;11.65;;;10.38;;
15198;SDS011;7700;48.654;9.070;2023-06-22T00:38:31;9.75;;;8.95;;
15198;SDS011;7700;48.654;9.070;2023-06-22T00:40:57;10.93;;;9.93;;
15198;SDS011;7700;48.654;9.070;2023-06-22T00:43:23;10.07;;;9.23;;
15198;SDS011;7700;48.654;9.070;2023-06-22T00:45:48;10.15;;;9.25;;
15198;SDS011;7700;48.654;9.070;2023-06-22T00:48:14;11.27;;;10.07;;
15198;SDS011;7700;48.654;9.070;2023-06-22T00:50:41;10.93;;;9.93;;
15198;SDS011;7700;48.654;9.070;2023-06-22T00:53:08;11.05;;;10.05;;
15198;SDS011;7700;48.654;9.070;2023-06-22T00:55:38;9.70;;;8.80;;
15198;SDS011;7700;48.654;9.070;2023-06-22T00:58:04;12.40;;;10.55;;
15198;SDS011;7700;48.654;9.070;2023-06-22T01:00:33;10.20;;;9.30;;
15198;SDS011;7700;48.654;9.070;2023-06-22T01:02:59;10.05;;;9.02;;
15198;SDS011;7700;48.654;9.070;2023-06-22T01:05:25;10.98;;;9.98;;
15198;SDS011;7700;48.654;9.070;2023-06-22T01:08:05;10.85;;;9.93;;
15198;SDS011;7700;48.654;9.070;2023-06-22T01:10:48;10.65;;;9.65;;
15198;SDS011;7700;48.654;9.070;2023-06-22T01:15:46;9.85;;;9.05;;
15198;SDS011;7700;48.654;9.070;2023-06-22T01:18:14;10.95;;;9.95;;
15198;SDS011;7700;48.654;9.070;2023-06-22T01:20:40;11.70;;;9.60;;
15198;SDS011;7700;48.654;9.070;2023-06-22T01:23:09;10.82;;;9.82;;
15198;SDS011;7700;48.654;9.070;2023-06-22T01:25:39;12.63;;;9.80;;
15198;SDS011;7700;48.654;9.070;2023-06-22T01:30:50;11.35;;;9.48;;
15198;SDS011;7700;48.654;9.070;2023-06-22T01:33:28;11.57;;;10.55;;
15198;SDS011;7700;48.654;9.070;2023-06-22T01:35:54;11.13;;;9.98;;
15198;SDS011;7700;48.654;9.070;2023-06-22T01:38:20;15.25;;;10.45;;
15198;SDS011;7700;48.654;9.070;2023-06-22T01:40:47;13.35;;;10.20;;
15198;SDS011;7700;48.654;9.070;2023-06-22T01:43:13;12.65;;;10.98;;
15198;SDS011;7700;48.654;9.070;2023-06-22T01:45:40;12.48;;;11.18;;
15198;SDS011;7700;48.654;9.070;2023-06-22T01:48:06;11.43;;;10.30;;
15198;SDS011;7700;48.654;9.070;2023-06-22T01:50:32;11.98;;;10.68;;
15198;SDS011;7700;48.654;9.070;2023-06-22T01:52:58;11.57;;;10.40;;
15198;SDS011;7700;48.654;9.070;2023-06-22T01:55:24;11.10;;;10.10;;
15198;SDS011;7700;48.654;9.070;2023-06-22T01:57:50;11.90;;;10.60;;
15198;SDS011;7700;48.654;9.070;2023-06-22T02:00:18;11.85;;;10.70;;
15198;SDS011;7700;48.654;9.070;2023-06-22T02:02:53;11.93;;;10.82;;
15198;SDS011;7700;48.654;9.070;2023-06-22T02:05:20;10.57;;;9.30;;
15198;SDS011;7700;48.654;9.070;2023-06-22T02:08:02;11.43;;;10.43;;
15198;SDS011;7700;48.654;9.070;2023-06-22T02:10:30;11.68;;;10.43;;
15198;SDS011;7700;48.654;9.070;2023-06-22T02:12:58;12.02;;;10.77;;
15198;SDS011;7700;48.654;9.070;2023-06-22T02:15:24;10.95;;;9.95;;
15198;SDS011;7700;48.654;9.070;2023-06-22T02:17:51;10.82;;;9.77;;
15198;SDS011;7700;48.654;9.070;2023-06-22T02:20:17;13.85;;;10.23;;
15198;SDS011;7700;48.654;9.070;2023-06-22T02:22:43;10.45;;;9.55;;
15198;SDS011;7700;48.654;9.070;2023-06-22T02:25:09;11.40;;;10.38;;
15198;SDS011;7700;48.654;9.070;2023-06-22T02:27:35;10.75;;;9.65;;
15198;SDS011;7700;48.654;9.070;2023-06-22T02:30:01;12.43;;;9.88;;
15198;SDS011;7700;48.654;9.070;2023-06-22T02:32:27;16.08;;;9.73;;
15198;SDS011;7700;48.654;9.070;2023-06-22T02:34:53;11.20;;;9.00;;
15198;SDS011;7700;48.654;9.070;2023-06-22T02:37:18;11.88;;;9.35;;
15198;SDS011;7700;48.654;9.070;2023-06-22T02:39:44;11.63;;;9.48;;
15198;SDS011;7700;48.654;9.070;2023-06-22T02:42:10;12.70;;;10.38;;
15198;SDS011;7700;48.654;9.070;2023-06-22T02:44:36;11.68;;;10.25;;
15198;SDS011;7700;48.654;9.070;2023-06-22T02:47:03;15.68;;;10.18;;
15198;SDS011;7700;48.654;9.070;2023-06-22T02:49:29;13.90;;;10.52;;
15198;SDS011;7700;48.654;9.070;2023-06-22T02:51:55;14.93;;;9.50;;
15198;SDS011;7700;48.654;9.070;2023-06-22T02:54:21;13.50;;;9.73;;
15198;SDS011;7700;48.654;9.070;2023-06-22T02:56:47;13.48;;;9.82;;
15198;SDS011;7700;48.654;9.070;2023-06-22T02:59:13;12.82;;;10.20;;
15198;SDS011;7700;48.654;9.070;2023-06-22T03:01:39;12.82;;;9.43;;
15198;SDS011;7700;48.654;9.070;2023-06-22T03:04:05;10.15;;;9.15;;
15198;SDS011;7700;48.654;9.070;2023-06-22T03:06:32;11.45;;;9.63;;
15198;SDS011;7700;48.654;9.070;2023-06-22T03:09:02;14.43;;;9.52;;
15198;SDS011;7700;48.654;9.070;2023-06-22T03:11:29;11.05;;;9.68;;
15198;SDS011;7700;48.654;9.070;2023-06-22T03:13:56;10.57;;;9.40;;
15198;SDS011;7700;48.654;9.070;2023-06-22T03:16:22;12.85;;;11.13;;
15198;SDS011;7700;48.654;9.070;2023-06-22T03:18:47;10.48;;;9.48;;
15198;SDS011;7700;48.654;9.070;2023-06-22T03:21:13;11.48;;;10.13;;
15198;SDS011;7700;48.654;9.070;2023-06-22T03:23:40;11.40;;;10.13;;
15198;SDS011;7700;48.654;9.070;2023-06-22T03:26:06;13.52;;;10.05;;
15198;SDS011;7700;48.654;9.070;2023-06-22T03:28:32;10.90;;;9.82;;
15198;SDS011;7700;48.654;9.070;2023-06-22T03:30:58;9.75;;;8.63;;
15198;SDS011;7700;48.654;9.070;2023-06-22T03:33:24;10.77;;;9.77;;
15198;SDS011;7700;48.654;9.070;2023-06-22T03:35:50;12.88;;;10.68;;
15198;SDS011;7700;48.654;9.070;2023-06-22T03:38:16;13.30;;;10.75;;
15198;SDS011;7700;48.654;9.070;2023-06-22T03:40:43;11.60;;;9.90;;
15198;SDS011;7700;48.654;9.070;2023-06-22T03:43:09;12.38;;;9.82;;
15198;SDS011;7700;48.654;9.070;2023-06-22T03:45:34;12.15;;;9.63;;
15198;SDS011;7700;48.654;9.070;2023-06-22T03:48:00;10.27;;;9.30;;
15198;SDS011;7700;48.654;9.070;2023-06-22T03:50:27;10.18;;;9.20;;
15198;SDS011;7700;48.654;9.070;2023-06-22T03:52:52;10.55;;;9.55;;
15198;SDS011;7700;48.654;9.070;2023-06-22T03:55:21;10.32;;;9.43;;
15198;SDS011;7700;48.654;9.070;2023-06-22T03:57:47;9.88;;;8.95;;
15198;SDS011;7700;48.654;9.070;2023-06-22T04:00:14;10.20;;;9.18;;
15198;SDS011;7700;48.654;9.070;2023-06-22T04:02:43;16.67;;;10.00;;
15198;SDS011;7700;48.654;9.070;2023-06-22T04:05:09;11.10;;;9.98;;
15198;SDS011;7700;48.654;9.070;2023-06-22T04:07:35;11.65;;;9.80;;
15198;SDS011;7700;48.654;9.070;2023-06-22T04:10:04;12.93;;;10.27;;
15198;SDS011;7700;48.654;9.070;2023-06-22T04:12:30;11.82;;;9.80;;
15198;SDS011;7700;48.654;9.070;2023-06-22T04:14:56;11.98;;;10.70;;
15198;SDS011;7700;48.654;9.070;2023-06-22T04:17:22;12.23;;;9.80;;
15198;SDS011;7700;48.654;9.070;2023-06-22T04:19:50;11.48;;;10.27;;
15198;SDS011;7700;48.654;9.070;2023-06-22T04:22:16;12.15;;;9.40;;
15198;SDS011;7700;48.654;9.070;2023-06-22T04:24:42;9.85;;;8.95;;
15198;SDS011;7700;48.654;9.070;2023-06-22T04:27:08;11.43;;;9.27;;
15198;SDS011;7700;48.654;9.070;2023-06-22T04:29:34;10.35;;;9.38;;
15198;SDS011;7700;48.654;9.070;2023-06-22T04:31:59;13.07;;;9.68;;
15198;SDS011;7700;48.654;9.070;2023-06-22T04:34:30;10.10;;;9.07;;
15198;SDS011;7700;48.654;9.070;2023-06-22T04:36:56;10.95;;;9.20;;
15198;SDS011;7700;48.654;9.070;2023-06-22T04:39:22;11.65;;;8.48;;
15198;SDS011;7700;48.654;9.070;2023-06-22T04:41:48;11.20;;;8.95;;
15198;SDS011;7700;48.654;9.070;2023-06-22T04:44:17;12.50;;;9.55;;
15198;SDS011;7700;48.654;9.070;2023-06-22T04:46:49;13.88;;;10.10;;
15198;SDS011;7700;48.654;9.070;2023-06-22T04:49:19;11.15;;;9.90;;
15198;SDS011;7700;48.654;9.070;2023-06-22T04:51:45;10.73;;;9.73;;
15198;SDS011;7700;48.654;9.070;2023-06-22T04:54:11;12.80;;;10.88;;
15198;SDS011;7700;48.654;9.070;2023-06-22T04:56:37;11.40;;;10.25;;
15198;SDS011;7700;48.654;9.070;2023-06-22T04:59:06;12.05;;;10.38;;
15198;SDS011;7700;48.654;9.070;2023-06-22T05:01:32;11.50;;;10.05;;
15198;SDS011;7700;48.654;9.070;2023-06-22T05:03:59;11.27;;;10.05;;
15198;SDS011;7700;48.654;9.070;2023-06-22T05:06:26;13.60;;;9.95;;
15198;SDS011;7700;48.654;9.070;2023-06-22T05:08:55;12.25;;;9.82;;
15198;SDS011;7700;48.654;9.070;2023-06-22T05:11:25;10.80;;;9.77;;
15198;SDS011;7700;48.654;9.070;2023-06-22T05:13:52;9.98;;;8.50;;
15198;SDS011;7700;48.654;9.070;2023-06-22T05:16:18;10.75;;;9.05;;
15198;SDS011;7700;48.654;9.070;2023-06-22T05:18:52;9.13;;;7.97;;
15198;SDS011;7700;48.654;9.070;2023-06-22T05:21:26;9.57;;;8.40;;
15198;SDS011;7700;48.654;9.070;2023-06-22T05:23:52;9.43;;;8.05;;
15198;SDS011;7700;48.654;9.070;2023-06-22T05:26:20;8.90;;;8.10;;
15198;SDS011;7700;48.654;9.070;2023-06-22T05:28:46;11.20;;;8.30;;
15198;SDS011;7700;48.654;9.070;2023-06-22T05:31:13;8.73;;;7.82;;
15198;SDS011;7700;48.654;9.070;2023-06-22T05:33:40;11.60;;;8.20;;
15198;SDS011;7700;48.654;9.070;2023-06-22T05:36:06;9.63;;;7.60;;
15198;SDS011;7700;48.654;9.070;2023-06-22T05:38:32;8.45;;;7.00;;
15198;SDS011;7700;48.654;9.070;2023-06-22T05:40:58;7.43;;;6.78;;
15198;SDS011;7700;48.654;9.070;2023-06-22T05:43:24;8.13;;;7.20;;
15198;SDS011;7700;48.654;9.070;2023-06-22T05:45:49;8.50;;;7.43;;
15198;SDS011;7700;48.654;9.070;2023-06-22T05:48:15;8.30;;;7.50;;
15198;SDS011;7700;48.654;9.070;2023-06-22T05:50:42;9.27;;;8.10;;
15198;SDS011;7700;48.654;9.070;2023-06-22T05:53:08;8.98;;;6.97;;
15198;SDS011;7700;48.654;9.070;2023-06-22T05:55:33;8.10;;;7.30;;
15198;SDS011;7700;48.654;9.070;2023-06-22T05:58:00;7.93;;;7.15;;
15198;SDS011;7700;48.654;9.070;2023-06-22T06:00:26;7.97;;;6.82;;
15198;SDS011;7700;48.654;9.070;2023-06-22T06:02:51;11.50;;;7.00;;
15198;SDS011;7700;48.654;9.070;2023-06-22T06:05:17;7.50;;;6.72;;
15198;SDS011;7700;48.654;9.070;2023-06-22T06:07:44;7.72;;;6.80;;
15198;SDS011;7700;48.654;9.070;2023-06-22T06:10:10;8.65;;;6.80;;
15198;SDS011;7700;48.654;9.070;2023-06-22T06:12:36;7.28;;;6.38;;
15198;SDS011;7700;48.654;9.070;2023-06-22T06:15:03;7.95;;;6.70;;
15198;SDS011;7700;48.654;9.070;2023-06-22T06:17:29;6.82;;;6.18;;
15198;SDS011;7700;48.654;9.070;2023-06-22T06:19:55;7.18;;;6.18;;
15198;SDS011;7700;48.654;9.070;2023-06-22T06:22:21;7.85;;;6.22;;
15198;SDS011;7700;48.654;9.070;2023-06-22T06:24:48;8.82;;;6.45;;
15198;SDS011;7700;48.654;9.070;2023-06-22T06:27:14;6.82;;;5.85;;
15198;SDS011;7700;48.654;9.070;2023-06-22T06:29:42;9.70;;;6.13;;
15198;SDS011;7700;48.654;9.070;2023-06-22T06:32:10;10.73;;;6.70;;
15198;SDS011;7700;48.654;9.070;2023-06-22T06:34:36;7.50;;;6.07;;
15198;SDS011;7700;48.654;9.070;2023-06-22T06:37:02;8.60;;;6.13;;
15198;SDS011;7700;48.654;9.070;2023-06-22T06:39:28;7.07;;;6.05;;
15198;SDS011;7700;48.654;9.070;2023-06-22T06:41:54;6.65;;;5.95;;
15198;SDS011;7700;48.654;9.070;2023-06-22T06:44:20;8.45;;;5.53;;
15198;SDS011;7700;48.654;9.070;2023-06-22T06:46:46;7.60;;;5.90;;
15198;SDS011;7700;48.654;9.070;2023-06-22T06:49:12;6.25;;;5.55;;
15198;SDS011;7700;48.654;9.070;2023-06-22T06:51:38;8.05;;;5.80;;
15198;SDS011;7700;48.654;9.070;2023-06-22T06:54:04;9.75;;;5.97;;
15198;SDS011;7700;48.654;9.070;2023-06-22T06:56:30;7.28;;;5.55;;
15198;SDS011;7700;48.654;9.070;2023-06-22T06:58:58;6.65;;;5.35;;
15198;SDS011;7700;48.654;9.070;2023-06-22T07:01:24;6.47;;;5.47;;
15198;SDS011;7700;48.654;9.070;2023-06-22T07:03:50;6.97;;;5.35;;
15198;SDS011;7700;48.654;9.070;2023-06-22T07:06:16;6.82;;;4.88;;
15198;SDS011;7700;48.654;9.070;2023-06-22T07:08:42;9.30;;;5.97;;
15198;SDS011;7700;48.654;9.070;2023-06-22T07:11:08;8.98;;;5.00;;
15198;SDS011;7700;48.654;9.070;2023-06-22T07:13:34;8.82;;;5.70;;
15198;SDS011;7700;48.654;9.070;2023-06-22T07:16:00;5.55;;;4.78;;
15198;SDS011;7700;48.654;9.070;2023-06-22T07:18:26;5.35;;;4.72;;
15198;SDS011;7700;48.654;9.070;2023-06-22T07:20:52;6.72;;;5.28;;
15198;SDS011;7700;48.654;9.070;2023-06-22T07:23:18;5.63;;;4.90;;
15198;SDS011;7700;48.654;9.070;2023-06-22T07:25:44;5.60;;;4.88;;
15198;SDS011;7700;48.654;9.070;2023-06-22T07:28:10;7.35;;;5.25;;
15198;SDS011;7700;48.654;9.070;2023-06-22T07:30:36;7.70;;;5.72;;
15198;SDS011;7700;48.654;9.070;2023-06-22T07:33:02;6.25;;;4.82;;
15198;SDS011;7700;48.654;9.070;2023-06-22T07:35:32;5.60;;;4.75;;
15198;SDS011;7700;48.654;9.070;2023-06-22T07:37:58;6.70;;;4.75;;
15198;SDS011;7700;48.654;9.070;2023-06-22T07:40:24;6.80;;;4.65;;
15198;SDS011;7700;48.654;9.070;2023-06-22T07:42:50;9.90;;;5.45;;
15198;SDS011;7700;48.654;9.070;2023-06-22T07:45:19;7.60;;;5.40;;
15198;SDS011;7700;48.654;9.070;2023-06-22T07:47:45;8.13;;;4.38;;
15198;SDS011;7700;48.654;9.070;2023-06-22T07:50:11;6.32;;;4.65;;
15198;SDS011;7700;48.654;9.070;2023-06-22T07:52:36;5.72;;;4.75;;
15198;SDS011;7700;48.654;9.070;2023-06-22T07:55:02;7.88;;;5.10;;
15198;SDS011;7700;48.654;9.070;2023-06-22T07:57:29;7.53;;;5.30;;
15198;SDS011;7700;48.654;9.070;2023-06-22T08:00:02;7.95;;;4.93;;
15198;SDS011;7700;48.654;9.070;2023-06-22T08:02:36;8.52;;;4.75;;
15198;SDS011;7700;48.654;9.070;2023-06-22T08:05:02;7.05;;;4.97;;
15198;SDS011;7700;48.654;9.070;2023-06-22T08:07:29;6.90;;;5.05;;
15198;SDS011;7700;48.654;9.070;2023-06-22T08:09:57;6.75;;;4.95;;
15198;SDS011;7700;48.654;9.070;2023-06-22T08:12:23;6.40;;;4.55;;
15198;SDS011;7700;48.654;9.070;2023-06-22T08:14:49;7.55;;;5.13;;
15198;SDS011;7700;48.654;9.070;2023-06-22T08:17:15;7.57;;;5.05;;
15198;SDS011;7700;48.654;9.070;2023-06-22T08:19:41;9.25;;;5.72;;
15198;SDS011;7700;48.654;9.070;2023-06-22T08:22:07;7.20;;;5.25;;
15198;SDS011;7700;48.654;9.070;2023-06-22T08:24:33;5.68;;;4.95;;
15198;SDS011;7700;48.654;9.070;2023-06-22T08:26:59;5.95;;;5.28;;
15198;SDS011;7700;48.654;9.070;2023-06-22T08:29:25;5.97;;;5.13;;
15198;SDS011;7700;48.654;9.070;2023-06-22T08:31:51;6.05;;;4.70;;
15198;SDS011;7700;48.654;9.070;2023-06-22T08:34:17;7.22;;;4.47;;
15198;SDS011;7700;48.654;9.070;2023-06-22T08:36:47;6.85;;;5.32;;
15198;SDS011;7700;48.654;9.070;2023-06-22T08:39:17;7.47;;;5.38;;
15198;SDS011;7700;48.654;9.070;2023-06-22T08:41:42;7.20;;;5.72;;
15198;SDS011;7700;48.654;9.070;2023-06-22T08:44:09;7.68;;;5.47;;
15198;SDS011;7700;48.654;9.070;2023-06-22T08:46:35;6.20;;;5.40;;
15198;SDS011;7700;48.654;9.070;2023-06-22T08:49:03;7.43;;;5.20;;
15198;SDS011;7700;48.654;9.070;2023-06-22T08:51:29;6.93;;;5.60;;
15198;SDS011;7700;48.654;9.070;2023-06-22T08:53:55;8.18;;;5.90;;
15198;SDS011;7700;48.654;9.070;2023-06-22T08:56:21;7.55;;;5.70;;
15198;SDS011;7700;48.654;9.070;2023-06-22T08:58:47;7.72;;;5.57;;
15198;SDS011;7700;48.654;9.070;2023-06-22T09:01:13;8.95;;;5.38;;
15198;SDS011;7700;48.654;9.070;2023-06-22T09:03:40;8.05;;;6.00;;
15198;SDS011;7700;48.654;9.070;2023-06-22T09:06:06;7.88;;;5.28;;
15198;SDS011;7700;48.654;9.070;2023-06-22T09:08:34;8.35;;;5.55;;
15198;SDS011;7700;48.654;9.070;2023-06-22T09:11:00;7.53;;;5.80;;
15198;SDS011;7700;48.654;9.070;2023-06-22T09:13:25;10.88;;;5.95;;
15198;SDS011;7700;48.654;9.070;2023-06-22T09:15:51;6.25;;;5.38;;
15198;SDS011;7700;48.654;9.070;2023-06-22T09:18:17;7.05;;;5.32;;
15198;SDS011;7700;48.654;9.070;2023-06-22T09:20:44;9.98;;;6.03;;
15198;SDS011;7700;48.654;9.070;2023-06-22T09:23:10;8.80;;;5.75;;
15198;SDS011;7700;48.654;9.070;2023-06-22T09:25:36;7.75;;;5.47;;
15198;SDS011;7700;48.654;9.070;2023-06-22T09:28:02;11.07;;;5.50;;
15198;SDS011;7700;48.654;9.070;2023-06-22T09:30:28;7.70;;;5.85;;
15198;SDS011;7700;48.654;9.070;2023-06-22T09:32:54;6.80;;;5.35;;
15198;SDS011;7700;48.654;9.070;2023-06-22T09:35:20;7.75;;;6.15;;
15198;SDS011;7700;48.654;9.070;2023-06-22T09:37:46;9.55;;;5.90;;
15198;SDS011;7700;48.654;9.070;2023-06-22T09:40:12;11.68;;;5.72;;
15198;SDS011;7700;48.654;9.070;2023-06-22T09:42:41;10.48;;;5.80;;
15198;SDS011;7700;48.654;9.070;2023-06-22T09:45:07;7.43;;;5.90;;
15198;SDS011;7700;48.654;9.070;2023-06-22T09:47:33;9.45;;;5.60;;
15198;SDS011;7700;48.654;9.070;2023-06-22T09:49:59;11.88;;;6.30;;
15198;SDS011;7700;48.654;9.070;2023-06-22T09:52:25;7.88;;;6.03;;
15198;SDS011;7700;48.654;9.070;2023-06-22T09:54:51;8.43;;;5.75;;
15198;SDS011;7700;48.654;9.070;2023-06-22T09:57:17;8.50;;;6.18;;
15198;SDS011;7700;48.654;9.070;2023-06-22T09:59:43;8.15;;;5.93;;
15198;SDS011;7700;48.654;9.070;2023-06-22T10:03:30;9.35;;;5.82;;
15198;SDS011;7700;48.654;9.070;2023-06-22T10:05:56;9.60;;;6.03;;
15198;SDS011;7700;48.654;9.070;2023-06-22T10:08:23;7.20;;;6.15;;
15198;SDS011;7700;48.654;9.070;2023-06-22T10:10:48;7.70;;;6.03;;
15198;SDS011;7700;48.654;9.070;2023-06-22T10:13:14;8.55;;;6.38;;
15198;SDS011;7700;48.654;9.070;2023-06-22T10:15:41;9.13;;;5.68;;
15198;SDS011;7700;48.654;9.070;2023-06-22T10:18:07;6.63;;;5.50;;
15198;SDS011;7700;48.654;9.070;2023-06-22T10:20:33;9.02;;;5.72;;
15198;SDS011;7700;48.654;9.070;2023-06-22T10:22:59;8.27;;;5.90;;
15198;SDS011;7700;48.654;9.070;2023-06-22T10:25:26;8.88;;;5.75;;
15198;SDS011;7700;48.654;9.070;2023-06-22T10:27:52;8.52;;;6.60;;
15198;SDS011;7700;48.654;9.070;2023-06-22T10:30:18;7.95;;;5.90;;
15198;SDS011;7700;48.654;9.070;2023-06-22T10:32:44;9.18;;;6.18;;
15198;SDS011;7700;48.654;9.070;2023-06-22T10:35:10;9.13;;;5.50;;
15198;SDS011;7700;48.654;9.070;2023-06-22T10:37:38;6.65;;;5.43;;
15198;SDS011;7700;48.654;9.070;2023-06-22T10:40:04;10.60;;;5.88;;
15198;SDS011;7700;48.654;9.070;2023-06-22T10:42:30;11.00;;;5.85;;
15198;SDS011;7700;48.654;9.070;2023-06-22T10:44:56;8.60;;;5.70;;
15198;SDS011;7700;48.654;9.070;2023-06-22T10:47:22;6.82;;;5.85;;
15198;SDS011;7700;48.654;9.070;2023-06-22T10:49:48;8.93;;;5.60;;
15198;SDS011;7700;48.654;9.070;2023-06-22T10:52:14;10.63;;;5.90;;
15198;SDS011;7700;48.654;9.070;2023-06-22T10:54:40;6.35;;;4.85;;
15198;SDS011;7700;48.654;9.070;2023-06-22T10:57:06;13.15;;;6.47;;
15198;SDS011;7700;48.654;9.070;2023-06-22T10:59:32;7.18;;;6.20;;
15198;SDS011;7700;48.654;9.070;2023-06-22T11:01:58;5.95;;;5.30;;
15198;SDS011;7700;48.654;9.070;2023-06-22T11:04:24;10.30;;;6.07;;
15198;SDS011;7700;48.654;9.070;2023-06-22T11:06:50;10.32;;;6.15;;
15198;SDS011;7700;48.654;9.070;2023-06-22T11:09:16;9.30;;;5.60;;
15198;SDS011;7700;48.654;9.070;2023-06-22T11:11:46;8.75;;;5.88;;
15198;SDS011;7700;48.654;9.070;2023-06-22T11:14:12;7.53;;;5.55;;
15198;SDS011;7700;48.654;9.070;2023-06-22T11:16:38;9.15;;;6.07;;
15198;SDS011;7700;48.654;9.070;2023-06-22T11:19:04;12.10;;;6.75;;
15198;SDS011;7700;48.654;9.070;2023-06-22T11:21:31;9.35;;;5.88;;
15198;SDS011;7700;48.654;9.070;2023-06-22T11:23:57;7.75;;;5.80;;
15198;SDS011;7700;48.654;9.070;2023-06-22T11:26:23;9.00;;;6.32;;
15198;SDS011;7700;48.654;9.070;2023-06-22T11:28:50;8.90;;;7.28;;
15198;SDS011;7700;48.654;9.070;2023-06-22T11:31:16;8.98;;;6.43;;
15198;SDS011;7700;48.654;9.070;2023-06-22T11:33:41;9.63;;;5.95;;
15198;SDS011;7700;48.654;9.070;2023-06-22T11:36:09;9.48;;;6.15;;
15198;SDS011;7700;48.654;9.070;2023-06-22T11:38:36;8.13;;;6.18;;
15198;SDS011;7700;48.654;9.070;2023-06-22T11:41:04;9.45;;;6.40;;
15198;SDS011;7700;48.654;9.070;2023-06-22T11:43:30;10.25;;;6.43;;
15198;SDS011;7700;48.654;9.070;2023-06-22T11:45:56;8.55;;;6.25;;
15198;SDS011;7700;48.654;9.070;2023-06-22T11:48:23;10.18;;;6.25;;
15198;SDS011;7700;48.654;9.070;2023-06-22T11:50:49;10.90;;;6.55;;
15198;SDS011;7700;48.654;9.070;2023-06-22T11:53:15;7.40;;;5.70;;
15198;SDS011;7700;48.654;9.070;2023-06-22T11:55:44;6.80;;;6.10;;
15198;SDS011;7700;48.654;9.070;2023-06-22T11:58:10;8.25;;;6.72;;
15198;SDS011;7700;48.654;9.070;2023-06-22T12:00:36;8.95;;;6.38;;
15198;SDS011;7700;48.654;9.070;2023-06-22T12:03:02;8.73;;;6.65;;
15198;SDS011;7700;48.654;9.070;2023-06-22T12:05:28;10.90;;;6.93;;
15198;SDS011;7700;48.654;9.070;2023-06-22T12:07:54;7.68;;;6.90;;
15198;SDS011;7700;48.654;9.070;2023-06-22T12:10:21;8.20;;;6.88;;
15198;SDS011;7700;48.654;9.070;2023-06-22T12:12:47;7.05;;;6.18;;
15198;SDS011;7700;48.654;9.070;2023-06-22T12:15:13;8.82;;;6.88;;
15198;SDS011;7700;48.654;9.070;2023-06-22T12:17:39;9.32;;;7.15;;
15198;SDS011;7700;48.654;9.070;2023-06-22T12:20:05;9.00;;;6.40;;
15198;SDS011;7700;48.654;9.070;2023-06-22T12:22:32;13.10;;;7.32;;
15198;SDS011;7700;48.654;9.070;2023-06-22T12:24:58;10.50;;;6.82;;
15198;SDS011;7700;48.654;9.070;2023-06-22T12:27:24;11.90;;;7.05;;
15198;SDS011;7700;48.654;9.070;2023-06-22T12:29:51;11.20;;;6.28;;
15198;SDS011;7700;48.654;9.070;2023-06-22T12:32:16;9.80;;;6.95;;
15198;SDS011;7700;48.654;9.070;2023-06-22T12:34:43;9.73;;;6.38;;
15198;SDS011;7700;48.654;9.070;2023-06-22T12:37:09;8.13;;;6.43;;
15198;SDS011;7700;48.654;9.070;2023-06-22T12:39:35;12.00;;;6.65;;
15198;SDS011;7700;48.654;9.070;2023-06-22T12:42:01;9.63;;;6.38;;
15198;SDS011;7700;48.654;9.070;2023-06-22T12:44:27;9.82;;;6.40;;
15198;SDS011;7700;48.654;9.070;2023-06-22T12:46:53;10.55;;;6.43;;
15198;SDS011;7700;48.654;9.070;2023-06-22T12:49:19;9.40;;;5.97;;
15198;SDS011;7700;48.654;9.070;2023-06-22T12:51:45;10.68;;;6.18;;
15198;SDS011;7700;48.654;9.070;2023-06-22T12:54:11;10.05;;;5.93;;
15198;SDS011;7700;48.654;9.070;2023-06-22T12:56:37;11.90;;;6.30;;
15198;SDS011;7700;48.654;9.070;2023-06-22T12:59:03;9.10;;;5.57;;
15198;SDS011;7700;48.654;9.070;2023-06-22T13:01:31;9.32;;;6.18;;
15198;SDS011;7700;48.654;9.070;2023-06-22T13:03:57;7.53;;;5.90;;
15198;SDS011;7700;48.654;9.070;2023-06-22T13:06:23;9.65;;;6.78;;
15198;SDS011;7700;48.654;9.070;2023-06-22T13:08:49;8.85;;;6.60;;
15198;SDS011;7700;48.654;9.070;2023-06-22T13:11:15;8.32;;;5.43;;
15198;SDS011;7700;48.654;9.070;2023-06-22T13:13:42;9.40;;;6.13;;
15198;SDS011;7700;48.654;9.070;2023-06-22T13:16:08;9.80;;;5.78;;
15198;SDS011;7700;48.654;9.070;2023-06-22T13:18:34;11.32;;;6.15;;
15198;SDS011;7700;48.654;9.070;2023-06-22T13:21:01;12.70;;;6.18;;
15198;SDS011;7700;48.654;9.070;2023-06-22T13:23:27;9.18;;;5.97;;
15198;SDS011;7700;48.654;9.070;2023-06-22T13:25:53;10.35;;;6.72;;
15198;SDS011;7700;48.654;9.070;2023-06-22T13:28:19;6.85;;;5.90;;
15198;SDS011;7700;48.654;9.070;2023-06-22T13:30:45;10.35;;;5.78;;
15198;SDS011;7700;48.654;9.070;2023-06-22T13:33:12;11.02;;;6.97;;
15198;SDS011;7700;48.654;9.070;2023-06-22T13:35:38;8.38;;;6.40;;
15198;SDS011;7700;48.654;9.070;2023-06-22T13:38:04;12.05;;;6.30;;
15198;SDS011;7700;48.654;9.070;2023-06-22T13:40:30;10.80;;;6.72;;
15198;SDS011;7700;48.654;9.070;2023-06-22T13:42:56;9.23;;;5.95;;
15198;SDS011;7700;48.654;9.070;2023-06-22T13:45:22;7.97;;;5.95;;
15198;SDS011;7700;48.654;9.070;2023-06-22T13:47:48;9.07;;;5.57;;
15198;SDS011;7700;48.654;9.070;2023-06-22T13:50:14;8.15;;;6.20;;
15198;SDS011;7700;48.654;9.070;2023-06-22T13:52:40;9.43;;;6.43;;
15198;SDS011;7700;48.654;9.070;2023-06-22T13:55:06;8.25;;;5.97;;
15198;SDS011;7700;48.654;9.070;2023-06-22T13:57:33;10.80;;;6.53;;
15198;SDS011;7700;48.654;9.070;2023-06-22T13:59:59;9.93;;;6.85;;
15198;SDS011;7700;48.654;9.070;2023-06-22T14:02:28;14.35;;;6.05;;
15198;SDS011;7700;48.654;9.070;2023-06-22T14:04:53;10.32;;;6.38;;
15198;SDS011;7700;48.654;9.070;2023-06-22T14:07:19;10.27;;;6.72;;
15198;SDS011;7700;48.654;9.070;2023-06-22T14:09:46;11.98;;;5.85;;
15198;SDS011;7700;48.654;9.070;2023-06-22T14:12:12;12.70;;;6.40;;
15198;SDS011;7700;48.654;9.070;2023-06-22T14:14:38;10.75;;;5.70;;
15198;SDS011;7700;48.654;9.070;2023-06-22T14:17:04;16.10;;;6.75;;
15198;SDS011;7700;48.654;9.070;2023-06-22T14:19:30;10.55;;;5.88;;
15198;SDS011;7700;48.654;9.070;2023-06-22T14:21:56;10.43;;;5.93;;
15198;SDS011;7700;48.654;9.070;2023-06-22T14:24:23;8.65;;;5.38;;
15198;SDS011;7700;48.654;9.070;2023-06-22T14:26:49;10.55;;;6.13;;
15198;SDS011;7700;48.654;9.070;2023-06-22T14:29:15;9.55;;;5.05;;
15198;SDS011;7700;48.654;9.070;2023-06-22T14:31:44;6.60;;;5.28;;
15198;SDS011;7700;48.654;9.070;2023-06-22T14:34:10;7.32;;;4.43;;
15198;SDS011;7700;48.654;9.070;2023-06-22T14:36:36;10.63;;;5.50;;
15198;SDS011;7700;48.654;9.070;2023-06-22T14:39:02;27.70;;;25.33;;
15198;SDS011;7700;48.654;9.070;2023-06-22T14:41:29;19.92;;;18.08;;
15198;SDS011;7700;48.654;9.070;2023-06-22T14:43:55;129.98;;;111.57;;
15198;SDS011;7700;48.654;9.070;2023-06-22T14:46:21;56.35;;;51.30;;
15198;SDS011;7700;48.654;9.070;2023-06-22T14:48:47;89.03;;;65.72;;
15198;SDS011;7700;48.654;9.070;2023-06-22T14:51:13;61.10;;;55.55;;
15198;SDS011;7700;48.654;9.070;2023-06-22T14:53:39;70.47;;;62.78;;
15198;SDS011;7700;48.654;9.070;2023-06-22T14:56:05;51.75;;;47.50;;